Edwards Crossroads, North Carolina
Current Conditions -  °F | °C
As of 11:35 PM on Thursday 18 Dec 2014 (Local Time) from KGEV Reporting Station
Overcast Overcast  
Wind Chill:   Ceiling: 3300
Heat Index:   Visibility: 10mi
Dew Point: -9°   Wind: 5mph
Humidity: 45%   Direction: 290°WNW
Pressure: 30.05"   Gusts: NA
Location:  36.5212°N, 81.1574°W
Report Text: KGEV 190435Z AUTO 29004KT 10SM OVC033 02/M09 A3005 RMK AO2 T00231087
Loading
Personal Weather Stations






























Interactive Weather Map New forecast layout! Learn more

10-Day Weather Forecast

Advertisements
Track Severe Weather on mobile